Charleston, Kentucky
Current Conditions -  °F | °C
As of 5:15 PM on Wednesday 26 Nov 2014 (Local Time) from K2I0 Reporting Station
Light Rain Light Rain  
Wind Chill: 35°   Ceiling: 2600
Heat Index: 42°   Visibility: 10mi
Dew Point: 34°   Wind: 12mph
Humidity: 75%   Direction: 250°WSW
Pressure: 30.03"   Gusts: NA
Location:  37.196°N, 87.6728°W
Report Text: K2I0 262315Z AUTO 25010KT 10SM -RA SCT018 BKN026 OVC031 05/01 A3003 RMK AO2 T00540012
Loading
Personal Weather Stations






























Interactive Weather Map New forecast layout! Learn more

10-Day Weather Forecast

Advertisements
Track Severe Weather on mobile